PWSweather.com
Personal Weather Stations
Station Observations
NIGHT1
EastleighGB

EastleighGB

Lat: 50.966307, Lon: -1.380982

Elevation: 78

Station Type: Davis VP2 with daytime FARS

Latest ConditionsUpdated 11:05:00 AM GMT Wednesday, May 25, 2016
Currently Today's Max Today's Min Today's Average
Temperature 53.1°F11.7°C 53.1°F11.7°C 43.1°F6.2°C 47.5°F8.6°C
Dew Point 44.3°F6.8°C 44.8°F7.1°C 39.9°F4.4°C 42.3°F5.7°C
Winds 2.6 mph ESE4.2 kmh ESE 2.6 mph ESE4.2 kmh ESE - 1.0 mph 1.6 kmh
Wind Gusts 7.0 mph11.3 kmh 10.0 mph16.1 kmh - -
Humidity 72% 90% 72% 82%
Pressure 30.02 in1016.6 mb 30.07 in1018.3 mb 30.02 in1016.6 mb -
Hour Temp Dew Point Humidity Winds Wind Gusts Pressure Precip Precip Rate Daily Precip Total
11:05 AM 53.1°F11.7°C 44.3°F6.8°C 72% 2.6 mph ESE4.2 kmh ESE 7.0 mph11.3 kmh 30.02 in1016.6 mb 0.00 in0.0 mm 0.00 in0.0 mm 0.00 in0.0 mm
11:00 AM 52.6°F11.4°C 43.8°F6.6°C 72% 2.3 mph ESE3.7 kmh ESE 10.0 mph16.1 kmh 30.02 in1016.6 mb 0.00 in0.0 mm 0.00 in0.0 mm 0.00 in0.0 mm
10:55 AM 52.2°F11.2°C 43.4°F6.3°C 72% 2.2 mph E3.5 kmh E 10.0 mph16.1 kmh 30.02 in1016.6 mb 0.00 in0.0 mm 0.00 in0.0 mm 0.00 in0.0 mm
10:50 AM 52.4°F11.3°C 44.0°F6.7°C 73% 2.5 mph E4.0 kmh E 7.0 mph11.3 kmh 30.02 in1016.6 mb 0.00 in0.0 mm 0.00 in0.0 mm 0.00 in0.0 mm
10:45 AM 52.2°F11.2°C 43.4°F6.3°C 72% 2.1 mph E3.4 kmh E 9.0 mph14.5 kmh 30.02 in1016.6 mb 0.00 in0.0 mm 0.00 in0.0 mm 0.00 in0.0 mm
10:40 AM 52.3°F11.3°C 43.5°F6.4°C 72% 1.6 mph E2.6 kmh E 9.0 mph14.5 kmh 30.02 in1016.6 mb 0.00 in0.0 mm 0.00 in0.0 mm 0.00 in0.0 mm
10:35 AM 52.7°F11.5°C 43.9°F6.6°C 72% 1.8 mph NE2.9 kmh NE 4.0 mph6.4 kmh 30.02 in1016.6 mb 0.00 in0.0 mm 0.00 in0.0 mm 0.00 in0.0 mm
10:30 AM 52.7°F11.5°C 44.3°F6.8°C 73% 2.0 mph NE3.2 kmh NE 6.0 mph9.7 kmh 30.02 in1016.6 mb 0.00 in0.0 mm 0.00 in0.0 mm 0.00 in0.0 mm
10:25 AM 52.4°F11.3°C 44.0°F6.7°C 73% 2.0 mph NE3.2 kmh NE 6.0 mph9.7 kmh 30.02 in1016.6 mb 0.00 in0.0 mm 0.00 in0.0 mm 0.00 in0.0 mm
10:20 AM 52.3°F11.3°C 43.5°F6.4°C 72% 1.5 mph NE2.4 kmh NE 6.0 mph9.7 kmh 30.03 in1016.9 mb 0.00 in0.0 mm 0.00 in0.0 mm 0.00 in0.0 mm
10:15 AM 52.3°F11.3°C 43.9°F6.6°C 73% 1.1 mph ENE1.8 kmh ENE 8.0 mph12.9 kmh 30.03 in1016.9 mb 0.00 in0.0 mm 0.00 in0.0 mm 0.00 in0.0 mm
10:10 AM 52.3°F11.3°C 43.9°F6.6°C 73% 1.6 mph ENE2.6 kmh ENE 8.0 mph12.9 kmh 30.03 in1016.9 mb 0.00 in0.0 mm 0.00 in0.0 mm 0.00 in0.0 mm
10:05 AM 52.3°F11.3°C 43.9°F6.6°C 73% 2.0 mph E3.2 kmh E 9.0 mph14.5 kmh 30.03 in1016.9 mb 0.00 in0.0 mm 0.00 in0.0 mm 0.00 in0.0 mm
10:00 AM 51.9°F11.1°C 43.5°F6.4°C 73% 1.6 mph E2.6 kmh E 9.0 mph14.5 kmh 30.03 in1016.9 mb 0.00 in0.0 mm 0.00 in0.0 mm 0.00 in0.0 mm
09:55 AM 52.0°F11.1°C 43.3°F6.3°C 72% 1.4 mph E2.3 kmh E 7.0 mph11.3 kmh 30.03 in1016.9 mb 0.00 in0.0 mm 0.00 in0.0 mm 0.00 in0.0 mm
09:50 AM 52.1°F11.2°C 44.8°F7.1°C 76% 1.8 mph NE2.9 kmh NE 8.0 mph12.9 kmh 30.03 in1016.9 mb 0.00 in0.0 mm 0.00 in0.0 mm 0.00 in0.0 mm
09:45 AM 51.8°F11.0°C 43.8°F6.6°C 74% 2.0 mph ENE3.2 kmh ENE 8.0 mph12.9 kmh 30.03 in1016.9 mb 0.00 in0.0 mm 0.00 in0.0 mm 0.00 in0.0 mm
09:40 AM 51.4°F10.8°C 43.4°F6.3°C 74% 1.8 mph ENE2.9 kmh ENE 6.0 mph9.7 kmh 30.03 in1016.9 mb 0.00 in0.0 mm 0.00 in0.0 mm 0.00 in0.0 mm
09:35 AM 51.5°F10.8°C 43.5°F6.4°C 74% 1.4 mph NE2.3 kmh NE 4.0 mph6.4 kmh 30.04 in1017.3 mb 0.00 in0.0 mm 0.00 in0.0 mm 0.00 in0.0 mm
09:30 AM 51.4°F10.8°C 43.7°F6.5°C 75% 1.6 mph E2.6 kmh E 5.0 mph8.0 kmh 30.04 in1017.3 mb 0.00 in0.0 mm 0.00 in0.0 mm 0.00 in0.0 mm
09:25 AM 51.5°F10.8°C 43.8°F6.6°C 75% 2.0 mph ENE3.2 kmh ENE 5.0 mph8.0 kmh 30.04 in1017.3 mb 0.00 in0.0 mm 0.00 in0.0 mm 0.00 in0.0 mm
09:20 AM 51.4°F10.8°C 43.7°F6.5°C 75% 1.5 mph ENE2.4 kmh ENE 7.0 mph11.3 kmh 30.04 in1017.3 mb 0.00 in0.0 mm 0.00 in0.0 mm 0.00 in0.0 mm
09:15 AM 51.3°F10.7°C 43.6°F6.4°C 75% 1.0 mph ENE1.6 kmh ENE 7.0 mph11.3 kmh 30.04 in1017.3 mb 0.00 in0.0 mm 0.00 in0.0 mm 0.00 in0.0 mm
09:10 AM 51.2°F10.7°C 43.9°F6.6°C 76% 1.0 mph NE1.6 kmh NE 5.0 mph8.0 kmh 30.04 in1017.3 mb 0.00 in0.0 mm 0.00 in0.0 mm 0.00 in0.0 mm
09:05 AM 51.1°F10.6°C 44.1°F6.7°C 77% 1.4 mph NE2.3 kmh NE 4.0 mph6.4 kmh 30.04 in1017.3 mb 0.00 in0.0 mm 0.00 in0.0 mm 0.00 in0.0 mm
09:00 AM 50.7°F10.4°C 43.8°F6.6°C 77% 2.0 mph NE3.2 kmh NE 7.0 mph11.3 kmh 30.04 in1017.3 mb 0.00 in0.0 mm 0.00 in0.0 mm 0.00 in0.0 mm
08:55 AM 50.5°F10.3°C 43.6°F6.4°C 77% 1.8 mph ENE2.9 kmh ENE 7.0 mph11.3 kmh 30.04 in1017.3 mb 0.00 in0.0 mm 0.00 in0.0 mm 0.00 in0.0 mm
08:50 AM 50.3°F10.2°C 43.4°F6.3°C 77% 1.2 mph E1.9 kmh E 7.0 mph11.3 kmh 30.05 in1017.6 mb 0.00 in0.0 mm 0.00 in0.0 mm 0.00 in0.0 mm
08:45 AM 50.4°F10.2°C 43.5°F6.4°C 77% 0.9 mph E1.4 kmh E 7.0 mph11.3 kmh 30.05 in1017.6 mb 0.00 in0.0 mm 0.00 in0.0 mm 0.00 in0.0 mm
08:40 AM 50.3°F10.2°C 43.7°F6.5°C 78% 0.9 mph NE1.4 kmh NE 3.0 mph4.8 kmh 30.05 in1017.6 mb 0.00 in0.0 mm 0.00 in0.0 mm 0.00 in0.0 mm
08:35 AM 50.2°F10.1°C 43.6°F6.4°C 78% 1.2 mph NE1.9 kmh NE 3.0 mph4.8 kmh 30.05 in1017.6 mb 0.00 in0.0 mm 0.00 in0.0 mm 0.00 in0.0 mm
08:30 AM 50.1°F10.1°C 43.5°F6.4°C 78% 1.7 mph ENE2.7 kmh ENE 3.0 mph4.8 kmh 30.05 in1017.6 mb 0.00 in0.0 mm 0.00 in0.0 mm 0.00 in0.0 mm
08:25 AM 50.0°F10.0°C 43.4°F6.3°C 78% 1.8 mph NNE2.9 kmh NNE 6.0 mph9.7 kmh 30.05 in1017.6 mb 0.00 in0.0 mm 0.00 in0.0 mm 0.00 in0.0 mm
08:20 AM 49.9°F9.9°C 43.3°F6.3°C 78% 1.3 mph NNE2.1 kmh NNE 6.0 mph9.7 kmh 30.05 in1017.6 mb 0.00 in0.0 mm 0.00 in0.0 mm 0.00 in0.0 mm
08:15 AM 50.1°F10.1°C 43.8°F6.6°C 79% 1.5 mph E2.4 kmh E 4.0 mph6.4 kmh 30.05 in1017.6 mb 0.00 in0.0 mm 0.00 in0.0 mm 0.00 in0.0 mm
08:10 AM 50.2°F10.1°C 44.3°F6.8°C 80% 2.0 mph E3.2 kmh E 6.0 mph9.7 kmh 30.05 in1017.6 mb 0.00 in0.0 mm 0.00 in0.0 mm 0.00 in0.0 mm
08:05 AM 50.0°F10.0°C 44.1°F6.7°C 80% 1.7 mph E2.7 kmh E 6.0 mph9.7 kmh 30.04 in1017.3 mb 0.00 in0.0 mm 0.00 in0.0 mm 0.00 in0.0 mm
08:00 AM 49.9°F9.9°C 44.0°F6.7°C 80% 1.2 mph NE1.9 kmh NE 10.0 mph16.1 kmh 30.05 in1017.6 mb 0.00 in0.0 mm 0.00 in0.0 mm 0.00 in0.0 mm
07:55 AM 49.9°F9.9°C 44.0°F6.7°C 80% 1.0 mph NE1.6 kmh NE 10.0 mph16.1 kmh 30.05 in1017.6 mb 0.00 in0.0 mm 0.00 in0.0 mm 0.00 in0.0 mm
07:50 AM 50.1°F10.1°C 44.8°F7.1°C 82% 1.0 mph NE1.6 kmh NE 3.0 mph4.8 kmh 30.05 in1017.6 mb 0.00 in0.0 mm 0.00 in0.0 mm 0.00 in0.0 mm
07:45 AM 49.9°F9.9°C 44.6°F7.0°C 82% 0.5 mph NW0.8 kmh NW 3.0 mph4.8 kmh 30.05 in1017.6 mb 0.00 in0.0 mm 0.00 in0.0 mm 0.00 in0.0 mm
07:40 AM 49.4°F9.7°C 44.1°F6.7°C 82% Calm Calm 3.0 mph4.8 kmh 30.05 in1017.6 mb 0.00 in0.0 mm 0.00 in0.0 mm 0.00 in0.0 mm
07:35 AM 49.4°F9.7°C 44.5°F6.9°C 83% Calm Calm -- 30.05 in1017.6 mb 0.00 in0.0 mm 0.00 in0.0 mm 0.00 in0.0 mm
07:30 AM 49.2°F9.6°C 44.3°F6.8°C 83% Calm Calm -- 30.05 in1017.6 mb 0.00 in0.0 mm 0.00 in0.0 mm 0.00 in0.0 mm
07:25 AM 49.2°F9.6°C 44.3°F6.8°C 83% Calm Calm -- 30.05 in1017.6 mb 0.00 in0.0 mm 0.00 in0.0 mm 0.00 in0.0 mm
07:20 AM 49.1°F9.5°C 44.2°F6.8°C 83% 0.3 mph 0.5 kmh -- 30.05 in1017.6 mb 0.00 in0.0 mm 0.00 in0.0 mm 0.00 in0.0 mm
07:15 AM 49.0°F9.4°C 44.1°F6.7°C 83% 0.8 mph 1.3 kmh -- 30.05 in1017.6 mb 0.00 in0.0 mm 0.00 in0.0 mm 0.00 in0.0 mm
07:10 AM 49.0°F9.4°C 44.4°F6.9°C 84% 0.7 mph N1.1 kmh N 5.0 mph8.0 kmh 30.05 in1017.6 mb 0.00 in0.0 mm 0.00 in0.0 mm 0.00 in0.0 mm
07:05 AM 48.8°F9.3°C 44.2°F6.8°C 84% 0.7 mph N1.1 kmh N 5.0 mph8.0 kmh 30.05 in1017.6 mb 0.00 in0.0 mm 0.00 in0.0 mm 0.00 in0.0 mm
07:00 AM 48.8°F9.3°C 44.5°F6.9°C 85% 1.1 mph N1.8 kmh N 3.0 mph4.8 kmh 30.05 in1017.6 mb 0.00 in0.0 mm 0.00 in0.0 mm 0.00 in0.0 mm
06:55 AM 48.7°F9.3°C 44.1°F6.7°C 84% 1.3 mph NW2.1 kmh NW 4.0 mph6.4 kmh 30.05 in1017.6 mb 0.00 in0.0 mm 0.00 in0.0 mm 0.00 in0.0 mm
06:50 AM 48.4°F9.1°C 44.1°F6.7°C 85% 1.3 mph NW2.1 kmh NW 5.0 mph8.0 kmh 30.05 in1017.6 mb 0.00 in0.0 mm 0.00 in0.0 mm 0.00 in0.0 mm
06:45 AM 48.2°F9.0°C 43.9°F6.6°C 85% 1.1 mph NNW1.8 kmh NNW 5.0 mph8.0 kmh 30.05 in1017.6 mb 0.00 in0.0 mm 0.00 in0.0 mm 0.00 in0.0 mm
06:40 AM 48.1°F8.9°C 43.8°F6.6°C 85% 1.0 mph NNW1.6 kmh NNW 4.0 mph6.4 kmh 30.05 in1017.6 mb 0.00 in0.0 mm 0.00 in0.0 mm 0.00 in0.0 mm
06:35 AM 47.9°F8.8°C 43.6°F6.4°C 85% 1.4 mph NNW2.3 kmh NNW 4.0 mph6.4 kmh 30.05 in1017.6 mb 0.00 in0.0 mm 0.00 in0.0 mm 0.00 in0.0 mm
06:30 AM 47.8°F8.8°C 43.8°F6.6°C 86% 1.5 mph NNW2.4 kmh NNW 4.0 mph6.4 kmh 30.05 in1017.6 mb 0.00 in0.0 mm 0.00 in0.0 mm 0.00 in0.0 mm
06:25 AM 47.6°F8.7°C 43.3°F6.3°C 85% 0.9 mph N1.4 kmh N 4.0 mph6.4 kmh 30.05 in1017.6 mb 0.00 in0.0 mm 0.00 in0.0 mm 0.00 in0.0 mm
06:20 AM 47.4°F8.6°C 43.4°F6.3°C 86% 0.3 mph NNW0.5 kmh NNW 4.0 mph6.4 kmh 30.05 in1017.6 mb 0.00 in0.0 mm 0.00 in0.0 mm 0.00 in0.0 mm
06:15 AM 47.3°F8.5°C 43.3°F6.3°C 86% Calm Calm 3.0 mph4.8 kmh 30.05 in1017.6 mb 0.00 in0.0 mm 0.00 in0.0 mm 0.00 in0.0 mm
06:10 AM 47.3°F8.5°C 43.3°F6.3°C 86% Calm Calm 2.0 mph3.2 kmh 30.05 in1017.6 mb 0.00 in0.0 mm 0.00 in0.0 mm 0.00 in0.0 mm
06:05 AM 47.1°F8.4°C 43.4°F6.3°C 87% 0.2 mph NNW0.3 kmh NNW 4.0 mph6.4 kmh 30.05 in1017.6 mb 0.00 in0.0 mm 0.00 in0.0 mm 0.00 in0.0 mm
05:55 AM 46.7°F8.2°C 43.0°F6.1°C 87% 1.7 mph NNW2.7 kmh NNW 4.0 mph6.4 kmh 30.05 in1017.6 mb 0.00 in0.0 mm 0.00 in0.0 mm 0.00 in0.0 mm
05:50 AM 46.4°F8.0°C 42.7°F5.9°C 87% 2.0 mph NNW3.2 kmh NNW 4.0 mph6.4 kmh 30.05 in1017.6 mb 0.00 in0.0 mm 0.00 in0.0 mm 0.00 in0.0 mm
05:45 AM 46.3°F7.9°C 42.6°F5.9°C 87% 1.6 mph NW2.6 kmh NW 4.0 mph6.4 kmh 30.05 in1017.6 mb 0.00 in0.0 mm 0.00 in0.0 mm 0.00 in0.0 mm
05:40 AM 46.1°F7.8°C 42.4°F5.8°C 87% 1.1 mph NW1.8 kmh NW 4.0 mph6.4 kmh 30.05 in1017.6 mb 0.00 in0.0 mm 0.00 in0.0 mm 0.00 in0.0 mm
05:35 AM 45.9°F7.7°C 42.5°F5.8°C 88% 1.0 mph NNW1.6 kmh NNW 4.0 mph6.4 kmh 30.05 in1017.6 mb 0.00 in0.0 mm 0.00 in0.0 mm 0.00 in0.0 mm
05:30 AM 45.8°F7.7°C 42.4°F5.8°C 88% 1.0 mph NNW1.6 kmh NNW 4.0 mph6.4 kmh 30.05 in1017.6 mb 0.00 in0.0 mm 0.00 in0.0 mm 0.00 in0.0 mm
05:25 AM 45.6°F7.6°C 42.3°F5.7°C 88% 1.0 mph NW1.6 kmh NW 5.0 mph8.0 kmh 30.05 in1017.6 mb 0.00 in0.0 mm 0.00 in0.0 mm 0.00 in0.0 mm
05:20 AM 45.4°F7.4°C 42.1°F5.6°C 88% 1.0 mph NW1.6 kmh NW 5.0 mph8.0 kmh 30.05 in1017.6 mb 0.00 in0.0 mm 0.00 in0.0 mm 0.00 in0.0 mm
05:15 AM 45.3°F7.4°C 42.0°F5.6°C 88% 1.0 mph NW1.6 kmh NW 4.0 mph6.4 kmh 30.05 in1017.6 mb 0.00 in0.0 mm 0.00 in0.0 mm 0.00 in0.0 mm
05:10 AM 45.2°F7.3°C 41.9°F5.5°C 88% 1.0 mph NW1.6 kmh NW 4.0 mph6.4 kmh 30.05 in1017.6 mb 0.00 in0.0 mm 0.00 in0.0 mm 0.00 in0.0 mm
05:05 AM 45.1°F7.3°C 42.1°F5.6°C 89% 1.0 mph N1.6 kmh N 4.0 mph6.4 kmh 30.05 in1017.6 mb 0.00 in0.0 mm 0.00 in0.0 mm 0.00 in0.0 mm
05:00 AM 45.0°F7.2°C 42.0°F5.6°C 89% 1.0 mph N1.6 kmh N 6.0 mph9.7 kmh 30.05 in1017.6 mb 0.00 in0.0 mm 0.00 in0.0 mm 0.00 in0.0 mm
04:55 AM 44.9°F7.2°C 41.9°F5.5°C 89% 0.7 mph NNW1.1 kmh NNW 6.0 mph9.7 kmh 30.05 in1017.6 mb 0.00 in0.0 mm 0.00 in0.0 mm 0.00 in0.0 mm
04:50 AM 44.7°F7.1°C 41.7°F5.4°C 89% 0.2 mph NNW0.3 kmh NNW 4.0 mph6.4 kmh 30.05 in1017.6 mb 0.00 in0.0 mm 0.00 in0.0 mm 0.00 in0.0 mm
04:45 AM 44.5°F6.9°C 41.5°F5.3°C 89% 0.4 mph 0.6 kmh -- 30.05 in1017.6 mb 0.00 in0.0 mm 0.00 in0.0 mm 0.00 in0.0 mm
04:40 AM 44.4°F6.9°C 41.4°F5.2°C 89% 0.9 mph NW1.4 kmh NW 4.0 mph6.4 kmh 30.05 in1017.6 mb 0.00 in0.0 mm 0.00 in0.0 mm 0.00 in0.0 mm
04:35 AM 44.2°F6.8°C 41.2°F5.1°C 89% 1.0 mph NW1.6 kmh NW 4.0 mph6.4 kmh 30.05 in1017.6 mb 0.00 in0.0 mm 0.00 in0.0 mm 0.00 in0.0 mm
04:30 AM 44.1°F6.7°C 41.4°F5.2°C 90% 1.0 mph NW1.6 kmh NW 4.0 mph6.4 kmh 30.05 in1017.6 mb 0.00 in0.0 mm 0.00 in0.0 mm 0.00 in0.0 mm
04:25 AM 44.0°F6.7°C 41.3°F5.2°C 90% 1.4 mph NW2.3 kmh NW 4.0 mph6.4 kmh 30.05 in1017.6 mb 0.00 in0.0 mm 0.00 in0.0 mm 0.00 in0.0 mm
04:20 AM 43.8°F6.6°C 41.1°F5.1°C 90% 1.9 mph NW3.1 kmh NW 4.0 mph6.4 kmh 30.05 in1017.6 mb 0.00 in0.0 mm 0.00 in0.0 mm 0.00 in0.0 mm
04:15 AM 43.6°F6.4°C 40.9°F4.9°C 90% 2.0 mph NW3.2 kmh NW 4.0 mph6.4 kmh 30.05 in1017.6 mb 0.00 in0.0 mm 0.00 in0.0 mm 0.00 in0.0 mm
04:10 AM 43.5°F6.4°C 40.8°F4.9°C 90% 2.0 mph NW3.2 kmh NW 4.0 mph6.4 kmh 30.04 in1017.3 mb 0.00 in0.0 mm 0.00 in0.0 mm 0.00 in0.0 mm
04:05 AM 43.3°F6.3°C 40.6°F4.8°C 90% 2.0 mph NW3.2 kmh NW 4.0 mph6.4 kmh 30.04 in1017.3 mb 0.00 in0.0 mm 0.00 in0.0 mm 0.00 in0.0 mm
04:00 AM 43.2°F6.2°C 40.5°F4.7°C 90% 1.7 mph NW2.7 kmh NW 4.0 mph6.4 kmh 30.04 in1017.3 mb 0.00 in0.0 mm 0.00 in0.0 mm 0.00 in0.0 mm
03:55 AM 43.1°F6.2°C 40.1°F4.5°C 89% 1.0 mph NW1.6 kmh NW 4.0 mph6.4 kmh 30.04 in1017.3 mb 0.00 in0.0 mm 0.00 in0.0 mm 0.00 in0.0 mm
03:50 AM 43.2°F6.2°C 40.2°F4.6°C 89% 0.8 mph NW1.3 kmh NW 4.0 mph6.4 kmh 30.05 in1017.6 mb 0.00 in0.0 mm 0.00 in0.0 mm 0.00 in0.0 mm
03:45 AM 43.2°F6.2°C 40.2°F4.6°C 89% 1.0 mph NW1.6 kmh NW 3.0 mph4.8 kmh 30.05 in1017.6 mb 0.00 in0.0 mm 0.00 in0.0 mm 0.00 in0.0 mm
03:40 AM 43.2°F6.2°C 40.2°F4.6°C 89% 0.5 mph NW0.8 kmh NW 3.0 mph4.8 kmh 30.05 in1017.6 mb 0.00 in0.0 mm 0.00 in0.0 mm 0.00 in0.0 mm
03:35 AM 43.3°F6.3°C 40.3°F4.6°C 89% Calm Calm 3.0 mph4.8 kmh 30.05 in1017.6 mb 0.00 in0.0 mm 0.00 in0.0 mm 0.00 in0.0 mm
03:30 AM 43.2°F6.2°C 40.2°F4.6°C 89% Calm Calm -- 30.04 in1017.3 mb 0.00 in0.0 mm 0.00 in0.0 mm 0.00 in0.0 mm
03:25 AM 43.2°F6.2°C 40.2°F4.6°C 89% Calm Calm -- 30.05 in1017.6 mb 0.00 in0.0 mm 0.00 in0.0 mm 0.00 in0.0 mm
03:20 AM 43.3°F6.3°C 40.0°F4.4°C 88% Calm Calm 1.0 mph1.6 kmh 30.05 in1017.6 mb 0.00 in0.0 mm 0.00 in0.0 mm 0.00 in0.0 mm
03:15 AM 43.4°F6.3°C 40.1°F4.5°C 88% Calm Calm 3.0 mph4.8 kmh 30.05 in1017.6 mb 0.00 in0.0 mm 0.00 in0.0 mm 0.00 in0.0 mm
03:10 AM 43.6°F6.4°C 40.3°F4.6°C 88% Calm Calm 3.0 mph4.8 kmh 30.05 in1017.6 mb 0.00 in0.0 mm 0.00 in0.0 mm 0.00 in0.0 mm
03:05 AM 43.7°F6.5°C 40.1°F4.5°C 87% Calm Calm 2.0 mph3.2 kmh 30.05 in1017.6 mb 0.00 in0.0 mm 0.00 in0.0 mm 0.00 in0.0 mm
03:00 AM 43.8°F6.6°C 40.2°F4.6°C 87% Calm Calm 2.0 mph3.2 kmh 30.05 in1017.6 mb 0.00 in0.0 mm 0.00 in0.0 mm 0.00 in0.0 mm
02:55 AM 43.9°F6.6°C 40.3°F4.6°C 87% Calm Calm 3.0 mph4.8 kmh 30.05 in1017.6 mb 0.00 in0.0 mm 0.00 in0.0 mm 0.00 in0.0 mm
02:50 AM 43.9°F6.6°C 40.0°F4.4°C 86% Calm Calm 3.0 mph4.8 kmh 30.05 in1017.6 mb 0.00 in0.0 mm 0.00 in0.0 mm 0.00 in0.0 mm
02:45 AM 43.9°F6.6°C 40.0°F4.4°C 86% 0.1 mph NNE0.2 kmh NNE 2.0 mph3.2 kmh 30.05 in1017.6 mb 0.00 in0.0 mm 0.00 in0.0 mm 0.00 in0.0 mm
02:40 AM 44.1°F6.7°C 40.2°F4.6°C 86% 0.6 mph NNE1.0 kmh NNE 5.0 mph8.0 kmh 30.05 in1017.6 mb 0.00 in0.0 mm 0.00 in0.0 mm 0.00 in0.0 mm
02:35 AM 44.1°F6.7°C 39.9°F4.4°C 85% 1.0 mph N1.6 kmh N 5.0 mph8.0 kmh 30.05 in1017.6 mb 0.00 in0.0 mm 0.00 in0.0 mm 0.00 in0.0 mm
02:30 AM 44.2°F6.8°C 40.0°F4.4°C 85% 0.8 mph NNW1.3 kmh NNW 4.0 mph6.4 kmh 30.05 in1017.6 mb 0.00 in0.0 mm 0.00 in0.0 mm 0.00 in0.0 mm
02:25 AM 44.3°F6.8°C 40.1°F4.5°C 85% 0.6 mph NNW1.0 kmh NNW 4.0 mph6.4 kmh 30.05 in1017.6 mb 0.00 in0.0 mm 0.00 in0.0 mm 0.00 in0.0 mm
02:20 AM 44.3°F6.8°C 40.1°F4.5°C 85% 0.8 mph N1.3 kmh N 3.0 mph4.8 kmh 30.05 in1017.6 mb 0.00 in0.0 mm 0.00 in0.0 mm 0.00 in0.0 mm
02:15 AM 44.5°F6.9°C 40.0°F4.4°C 84% 1.0 mph N1.6 kmh N 4.0 mph6.4 kmh 30.05 in1017.6 mb 0.00 in0.0 mm 0.00 in0.0 mm 0.00 in0.0 mm
02:10 AM 44.5°F6.9°C 40.0°F4.4°C 84% 1.0 mph N1.6 kmh N 5.0 mph8.0 kmh 30.05 in1017.6 mb 0.00 in0.0 mm 0.00 in0.0 mm 0.00 in0.0 mm
02:05 AM 44.6°F7.0°C 40.1°F4.5°C 84% 1.0 mph N1.6 kmh N 5.0 mph8.0 kmh 30.05 in1017.6 mb 0.00 in0.0 mm 0.00 in0.0 mm 0.00 in0.0 mm
02:00 AM 44.7°F7.1°C 40.2°F4.6°C 84% 1.0 mph NNW1.6 kmh NNW 5.0 mph8.0 kmh 30.05 in1017.6 mb 0.00 in0.0 mm 0.00 in0.0 mm 0.00 in0.0 mm
01:55 AM 44.7°F7.1°C 40.2°F4.6°C 84% 1.0 mph NNW1.6 kmh NNW 4.0 mph6.4 kmh 30.05 in1017.6 mb 0.00 in0.0 mm 0.00 in0.0 mm 0.00 in0.0 mm
01:50 AM 44.8°F7.1°C 40.3°F4.6°C 84% 1.0 mph N1.6 kmh N 3.0 mph4.8 kmh 30.05 in1017.6 mb 0.00 in0.0 mm 0.00 in0.0 mm 0.00 in0.0 mm
01:45 AM 44.9°F7.2°C 40.4°F4.7°C 84% 0.6 mph N1.0 kmh N 4.0 mph6.4 kmh 30.06 in1017.9 mb 0.00 in0.0 mm 0.00 in0.0 mm 0.00 in0.0 mm
01:40 AM 45.0°F7.2°C 40.5°F4.7°C 84% 0.1 mph N0.2 kmh N 4.0 mph6.4 kmh 30.06 in1017.9 mb 0.00 in0.0 mm 0.00 in0.0 mm 0.00 in0.0 mm
01:35 AM 45.1°F7.3°C 40.6°F4.8°C 84% Calm Calm 2.0 mph3.2 kmh 30.06 in1017.9 mb 0.00 in0.0 mm 0.00 in0.0 mm 0.00 in0.0 mm
01:30 AM 45.2°F7.3°C 40.3°F4.6°C 83% Calm Calm -- 30.07 in1018.3 mb 0.00 in0.0 mm 0.00 in0.0 mm 0.00 in0.0 mm
01:25 AM 45.4°F7.4°C 40.5°F4.7°C 83% Calm Calm -- 30.07 in1018.3 mb 0.00 in0.0 mm 0.00 in0.0 mm 0.00 in0.0 mm
01:20 AM 45.6°F7.6°C 40.7°F4.8°C 83% Calm Calm -- 30.07 in1018.3 mb 0.00 in0.0 mm 0.00 in0.0 mm 0.00 in0.0 mm
01:15 AM 45.8°F7.7°C 40.6°F4.8°C 82% Calm Calm -- 30.07 in1018.3 mb 0.00 in0.0 mm 0.00 in0.0 mm 0.00 in0.0 mm
01:10 AM 45.9°F7.7°C 40.7°F4.8°C 82% Calm Calm -- 30.07 in1018.3 mb 0.00 in0.0 mm 0.00 in0.0 mm 0.00 in0.0 mm
01:05 AM 46.1°F7.8°C 40.9°F4.9°C 82% Calm Calm -- 30.07 in1018.3 mb 0.00 in0.0 mm 0.00 in0.0 mm 0.00 in0.0 mm
01:00 AM 46.3°F7.9°C 40.8°F4.9°C 81% Calm Calm -- 30.07 in1018.3 mb 0.00 in0.0 mm 0.00 in0.0 mm 0.00 in0.0 mm
12:55 AM 46.5°F8.1°C 41.0°F5.0°C 81% Calm Calm -- 30.07 in1018.3 mb 0.00 in0.0 mm 0.00 in0.0 mm 0.00 in0.0 mm
12:50 AM 46.6°F8.1°C 41.1°F5.1°C 81% Calm Calm -- 30.07 in1018.3 mb 0.00 in0.0 mm 0.00 in0.0 mm 0.00 in0.0 mm
12:45 AM 46.7°F8.2°C 41.2°F5.1°C 81% Calm Calm -- 30.07 in1018.3 mb 0.00 in0.0 mm 0.00 in0.0 mm 0.00 in0.0 mm
12:40 AM 46.9°F8.3°C 41.1°F5.1°C 80% Calm Calm -- 30.07 in1018.3 mb 0.00 in0.0 mm 0.00 in0.0 mm 0.00 in0.0 mm
12:35 AM 47.0°F8.3°C 41.1°F5.1°C 80% 0.3 mph N0.5 kmh N 4.0 mph6.4 kmh 30.07 in1018.3 mb 0.00 in0.0 mm 0.00 in0.0 mm 0.00 in0.0 mm
12:30 AM 47.2°F8.4°C 41.3°F5.2°C 80% 0.7 mph NNE1.1 kmh NNE 4.0 mph6.4 kmh 30.07 in1018.3 mb 0.00 in0.0 mm 0.00 in0.0 mm 0.00 in0.0 mm
12:25 AM 47.4°F8.6°C 41.5°F5.3°C 80% 0.9 mph ENE1.4 kmh ENE 2.0 mph3.2 kmh 30.07 in1018.3 mb 0.00 in0.0 mm 0.00 in0.0 mm 0.00 in0.0 mm
12:20 AM 47.6°F8.7°C 41.7°F5.4°C 80% 1.0 mph NE1.6 kmh NE 4.0 mph6.4 kmh 30.07 in1018.3 mb 0.00 in0.0 mm 0.00 in0.0 mm 0.00 in0.0 mm
12:15 AM 47.7°F8.7°C 41.5°F5.3°C 79% 1.0 mph NE1.6 kmh NE 4.0 mph6.4 kmh 30.07 in1018.3 mb 0.00 in0.0 mm 0.00 in0.0 mm 0.00 in0.0 mm
12:10 AM 47.9°F8.8°C 41.7°F5.4°C 79% 1.0 mph E1.6 kmh E 4.0 mph6.4 kmh 30.07 in1018.3 mb 0.00 in0.0 mm 0.00 in0.0 mm 0.00 in0.0 mm
12:05 AM 48.1°F8.9°C 41.9°F5.5°C 79% 1.0 mph ENE1.6 kmh ENE 5.0 mph8.0 kmh 30.07 in1018.3 mb 0.00 in0.0 mm 0.00 in0.0 mm 0.00 in0.0 mm
12:00 AM 48.3°F9.1°C 42.1°F5.6°C 79% 1.0 mph NE1.6 kmh NE 6.0 mph9.7 kmh 30.07 in1018.3 mb 0.00 in0.0 mm 0.00 in0.0 mm 0.00 in0.0 mm